createdAt,value
2023-08-30T00:00:23.877Z,99.90
2023-08-30T00:02:54.051Z,99.90
2023-08-30T00:05:22.262Z,99.90
2023-08-30T00:07:55.714Z,99.90
2023-08-30T00:10:22.759Z,99.90
2023-08-30T00:12:50.837Z,99.90
2023-08-30T00:15:19.925Z,99.90
2023-08-30T00:17:47.664Z,99.90
2023-08-30T00:20:17.818Z,99.90
2023-08-30T00:22:51.074Z,99.90
2023-08-30T00:25:28.331Z,99.90
2023-08-30T00:27:56.384Z,99.90
2023-08-30T00:30:26.490Z,99.90
2023-08-30T00:32:59.718Z,99.90
2023-08-30T00:35:26.681Z,99.90
2023-08-30T00:37:54.755Z,99.90
2023-08-30T00:40:25.852Z,99.90
2023-08-30T00:42:53.937Z,99.90
2023-08-30T00:45:22.094Z,99.90
2023-08-30T00:47:50.404Z,99.90
2023-08-30T00:50:23.469Z,99.90
2023-08-30T00:52:50.650Z,99.90
2023-08-30T00:55:17.807Z,99.90
2023-08-30T00:57:48.642Z,99.90
2023-08-30T01:00:18.982Z,99.90
2023-08-30T01:02:46.469Z,99.90
2023-08-30T01:05:14.224Z,99.90
2023-08-30T01:07:41.715Z,99.90
2023-08-30T01:10:11.738Z,99.90
2023-08-30T01:12:44.075Z,99.90
2023-08-30T01:15:16.737Z,99.90
2023-08-30T01:17:45.485Z,99.90
2023-08-30T01:20:23.337Z,99.90
2023-08-30T01:23:06.751Z,99.90
2023-08-30T01:26:12.691Z,99.90
2023-08-30T01:28:41.283Z,99.90
2023-08-30T01:31:10.664Z,99.90
2023-08-30T01:33:39.280Z,99.90
2023-08-30T01:36:07.294Z,99.90
2023-08-30T01:38:36.322Z,99.90
2023-08-30T01:41:05.936Z,99.90
2023-08-30T01:43:37.704Z,99.90
2023-08-30T01:46:08.184Z,99.90
2023-08-30T01:48:39.049Z,99.90
2023-08-30T01:51:08.626Z,99.90
2023-08-30T01:53:38.925Z,99.90
2023-08-30T01:56:06.968Z,99.90
2023-08-30T01:58:37.404Z,99.90
2023-08-30T02:01:04.537Z,99.90
2023-08-30T02:03:34.926Z,99.90
2023-08-30T02:06:12.757Z,99.90
2023-08-30T02:09:08.427Z,99.90
2023-08-30T02:11:38.297Z,99.90
2023-08-30T02:14:11.035Z,99.90
2023-08-30T02:16:42.471Z,99.90
2023-08-30T02:19:13.339Z,99.90
2023-08-30T02:21:41.703Z,99.90
2023-08-30T02:24:09.990Z,99.90
2023-08-30T02:26:39.087Z,99.90
2023-08-30T02:29:09.491Z,99.90
2023-08-30T02:31:38.688Z,99.90
2023-08-30T02:34:08.944Z,99.90
2023-08-30T02:36:35.962Z,99.90
2023-08-30T02:39:04.866Z,99.90
2023-08-30T02:41:35.648Z,99.90
2023-08-30T02:44:02.736Z,99.90
2023-08-30T02:46:30.857Z,99.90
2023-08-30T02:49:01.104Z,99.90
2023-08-30T02:51:31.366Z,99.90
2023-08-30T02:53:59.447Z,99.90
2023-08-30T02:56:29.754Z,99.90
2023-08-30T02:59:00.144Z,99.90
2023-08-30T03:01:28.443Z,99.90
2023-08-30T03:03:57.628Z,99.90
2023-08-30T03:06:24.700Z,99.90
2023-08-30T03:08:51.767Z,99.90
2023-08-30T03:11:18.928Z,99.90
2023-08-30T03:13:48.053Z,99.90
2023-08-30T03:16:18.515Z,99.90
2023-08-30T03:18:48.654Z,99.90
2023-08-30T03:21:15.732Z,99.90
2023-08-30T03:23:44.920Z,99.90
2023-08-30T03:26:17.570Z,99.90
2023-08-30T03:28:45.368Z,99.90
2023-08-30T03:31:17.382Z,99.90
2023-08-30T03:33:46.327Z,99.90
2023-08-30T03:36:15.388Z,99.90
2023-08-30T03:38:53.720Z,99.90
2023-08-30T03:41:20.837Z,99.90
2023-08-30T03:43:48.845Z,99.90
2023-08-30T03:46:19.158Z,99.90
2023-08-30T03:48:49.554Z,99.90
2023-08-30T03:51:19.786Z,99.90
2023-08-30T03:53:47.900Z,99.90
2023-08-30T03:56:17.971Z,99.90
2023-08-30T03:58:48.134Z,99.90
2023-08-30T04:01:16.258Z,99.90
2023-08-30T04:03:46.465Z,99.90
2023-08-30T04:06:14.842Z,99.90
2023-08-30T04:08:44.862Z,99.90
2023-08-30T04:11:11.904Z,99.90
2023-08-30T04:13:39.916Z,99.90
2023-08-30T04:16:07.057Z,99.90
2023-08-30T04:18:36.394Z,99.90
2023-08-30T04:21:07.385Z,99.90
2023-08-30T04:23:37.479Z,99.90
2023-08-30T04:26:07.540Z,99.90
2023-08-30T04:28:34.661Z,99.90
2023-08-30T04:31:04.916Z,99.90
2023-08-30T04:33:35.093Z,99.90
2023-08-30T04:36:05.112Z,99.90
2023-08-30T04:38:39.928Z,99.90
2023-08-30T04:41:13.717Z,99.90
2023-08-30T04:43:40.691Z,99.90
2023-08-30T04:46:08.734Z,99.90
2023-08-30T04:48:36.837Z,99.90
2023-08-30T04:51:07.068Z,99.90
2023-08-30T04:53:34.274Z,99.90
2023-08-30T04:56:10.876Z,99.90
2023-08-30T04:58:40.946Z,99.90
2023-08-30T05:01:12.523Z,99.90
2023-08-30T05:03:43.073Z,99.90
2023-08-30T05:06:17.309Z,99.90
2023-08-30T05:08:46.629Z,99.90
2023-08-30T05:11:13.752Z,99.90
2023-08-30T05:13:43.811Z,99.90
2023-08-30T05:16:12.959Z,99.90
2023-08-30T05:18:40.083Z,99.90
2023-08-30T05:21:08.181Z,99.90
2023-08-30T05:23:39.893Z,99.90
2023-08-30T05:26:15.483Z,99.90
2023-08-30T05:28:42.468Z,99.90
2023-08-30T05:31:09.554Z,99.90
2023-08-30T05:33:39.735Z,99.90
2023-08-30T05:36:09.873Z,99.90
2023-08-30T05:38:38.019Z,99.90
2023-08-30T05:41:07.031Z,99.90
2023-08-30T05:43:36.362Z,99.90
2023-08-30T05:46:05.442Z,99.90
2023-08-30T05:48:35.642Z,99.90
2023-08-30T05:51:05.780Z,99.90
2023-08-30T05:53:36.040Z,99.90
2023-08-30T05:56:09.170Z,99.90
2023-08-30T05:58:39.285Z,99.90
2023-08-30T06:01:09.530Z,99.90
2023-08-30T06:03:43.796Z,99.90
2023-08-30T06:06:13.106Z,99.90
2023-08-30T06:08:43.332Z,99.90
2023-08-30T06:11:10.434Z,99.90
2023-08-30T06:13:40.687Z,99.90
2023-08-30T06:16:08.920Z,99.90
2023-08-30T06:18:39.349Z,99.90
2023-08-30T06:21:07.470Z,99.90
2023-08-30T06:23:35.372Z,99.90
2023-08-30T06:26:04.292Z,99.90
2023-08-30T06:28:33.387Z,99.90
2023-08-30T06:31:03.993Z,99.90
2023-08-30T06:33:34.083Z,99.90
2023-08-30T06:36:04.321Z,99.90
2023-08-30T06:38:34.897Z,99.90
2023-08-30T06:41:05.157Z,99.90
2023-08-30T06:43:33.722Z,99.90
2023-08-30T06:46:02.101Z,99.90
2023-08-30T06:48:31.222Z,99.90
2023-08-30T06:51:01.509Z,99.90
2023-08-30T06:53:28.804Z,99.90
2023-08-30T06:56:02.417Z,99.90
2023-08-30T06:58:31.482Z,99.90
2023-08-30T07:01:01.972Z,99.90
2023-08-30T07:03:30.174Z,99.90
2023-08-30T07:05:57.283Z,99.90
2023-08-30T07:08:24.458Z,99.90
2023-08-30T07:10:52.860Z,99.90
2023-08-30T07:13:20.865Z,99.90
2023-08-30T07:15:49.347Z,99.90
2023-08-30T07:18:19.544Z,99.90
2023-08-30T07:20:48.705Z,99.90
2023-08-30T07:23:15.746Z,99.90
2023-08-30T07:25:45.920Z,99.90
2023-08-30T07:28:13.927Z,99.90
2023-08-30T07:30:44.005Z,99.90
2023-08-30T07:33:11.462Z,99.90
2023-08-30T07:35:40.487Z,99.90
2023-08-30T07:38:07.769Z,99.90
2023-08-30T07:40:36.120Z,99.90
2023-08-30T07:43:06.200Z,99.90
2023-08-30T07:45:36.374Z,99.90
2023-08-30T07:48:06.560Z,99.90
2023-08-30T07:50:36.716Z,99.90
2023-08-30T07:53:05.854Z,99.90
2023-08-30T07:55:35.954Z,99.90
2023-08-30T07:58:06.896Z,99.90
2023-08-30T08:00:37.304Z,99.90
2023-08-30T08:03:05.423Z,99.90
2023-08-30T08:05:32.521Z,99.90
2023-08-30T08:08:03.886Z,99.90
2023-08-30T08:10:35.634Z,99.90
2023-08-30T08:13:08.007Z,99.90
2023-08-30T08:15:38.264Z,99.90
2023-08-30T08:18:07.872Z,99.90
2023-08-30T08:20:38.404Z,99.90
2023-08-30T08:23:05.503Z,99.90
2023-08-30T08:25:32.715Z,99.90
2023-08-30T08:27:59.733Z,99.90
2023-08-30T08:30:26.796Z,99.90
2023-08-30T08:32:57.347Z,99.90
2023-08-30T08:35:27.485Z,99.90
2023-08-30T08:37:55.554Z,99.90
2023-08-30T08:40:32.504Z,99.90
2023-08-30T08:43:12.876Z,99.30
2023-08-30T08:45:44.067Z,99.00
2023-08-30T08:48:11.929Z,98.30
2023-08-30T08:50:39.415Z,97.70
2023-08-30T08:53:08.497Z,97.70
2023-08-30T08:55:37.572Z,97.70
2023-08-30T08:58:05.533Z,97.10
2023-08-30T09:00:34.032Z,96.60
2023-08-30T09:03:05.789Z,95.70
2023-08-30T09:05:34.198Z,95.50
2023-08-30T09:08:04.471Z,94.90
2023-08-30T09:10:37.428Z,94.90
2023-08-30T09:13:04.554Z,95.00
2023-08-30T09:15:38.133Z,94.10
2023-08-30T09:18:05.645Z,94.10
2023-08-30T09:20:33.805Z,94.60
2023-08-30T09:23:01.865Z,94.30
2023-08-30T09:25:32.103Z,93.70
2023-08-30T09:28:04.568Z,94.20
2023-08-30T09:30:33.372Z,94.10
2023-08-30T09:33:05.543Z,94.40
2023-08-30T09:35:46.269Z,94.40
2023-08-30T09:38:26.440Z,94.40
2023-08-30T09:41:07.200Z,94.70
2023-08-30T09:43:37.458Z,94.60
2023-08-30T09:46:12.917Z,94.80
2023-08-30T09:48:43.263Z,94.60
2023-08-30T09:51:17.167Z,94.10
2023-08-30T09:54:04.667Z,94.40
2023-08-30T09:56:39.494Z,94.60
2023-08-30T09:59:12.296Z,94.10
2023-08-30T10:01:44.710Z,93.90
2023-08-30T10:04:12.665Z,93.70
2023-08-30T10:06:41.165Z,93.30
2023-08-30T10:09:17.068Z,93.20
2023-08-30T10:11:48.309Z,93.30
2023-08-30T10:14:19.020Z,94.10
2023-08-30T10:16:50.093Z,94.50
2023-08-30T10:19:26.025Z,94.20
2023-08-30T10:22:13.387Z,94.20
2023-08-30T10:27:46.817Z,94.00
2023-08-30T10:30:22.499Z,94.50
2023-08-30T10:32:52.581Z,95.10
2023-08-30T10:35:22.647Z,95.20
2023-08-30T10:38:01.077Z,95.20
2023-08-30T10:40:31.194Z,94.50
2023-08-30T10:43:06.420Z,93.80
2023-08-30T10:45:34.947Z,93.20
2023-08-30T10:48:05.062Z,93.00
2023-08-30T10:50:35.569Z,92.90
2023-08-30T10:53:03.060Z,92.60
2023-08-30T10:55:33.162Z,92.40
2023-08-30T10:58:03.555Z,92.10
2023-08-30T11:00:32.716Z,91.90
2023-08-30T11:03:01.059Z,91.90
2023-08-30T11:05:29.266Z,91.90
2023-08-30T11:07:58.435Z,92.00
2023-08-30T11:10:25.640Z,91.90
2023-08-30T11:12:57.792Z,91.60
2023-08-30T11:15:28.105Z,91.50
2023-08-30T11:18:04.807Z,91.90
2023-08-30T11:20:33.041Z,91.70
2023-08-30T11:23:04.101Z,92.10
2023-08-30T11:25:32.235Z,92.80
2023-08-30T11:28:06.927Z,92.70
2023-08-30T11:30:41.718Z,92.30
2023-08-30T11:33:12.059Z,92.20
2023-08-30T11:35:42.672Z,92.50
2023-08-30T11:38:10.226Z,92.50
2023-08-30T11:40:39.670Z,92.40
2023-08-30T11:43:08.303Z,92.70
2023-08-30T11:45:37.624Z,92.40
2023-08-30T11:48:08.113Z,91.40
2023-08-30T11:50:48.453Z,91.50
2023-08-30T11:53:18.278Z,91.80
2023-08-30T11:55:47.628Z,91.80
2023-08-30T11:58:14.617Z,91.10
2023-08-30T12:00:43.116Z,90.90
2023-08-30T12:03:16.989Z,90.90
2023-08-30T12:05:51.029Z,91.00
2023-08-30T12:08:23.964Z,91.60
2023-08-30T12:10:51.536Z,91.40
2023-08-30T12:13:33.671Z,91.60
2023-08-30T12:16:01.543Z,91.40
2023-08-30T12:18:34.060Z,91.00
2023-08-30T12:21:05.497Z,91.40
2023-08-30T12:23:35.024Z,91.40
2023-08-30T12:26:08.484Z,91.20
2023-08-30T12:28:39.773Z,90.80
2023-08-30T12:31:09.264Z,90.70
2023-08-30T12:33:41.921Z,91.00
2023-08-30T12:36:11.007Z,91.00
2023-08-30T12:38:40.550Z,91.30
2023-08-30T12:41:10.650Z,91.40
2023-08-30T12:43:37.838Z,91.30
2023-08-30T12:46:05.552Z,91.50
2023-08-30T12:48:38.738Z,92.00
2023-08-30T12:51:08.873Z,92.30
2023-08-30T12:53:39.078Z,92.40
2023-08-30T12:56:06.125Z,92.20
2023-08-30T12:58:33.191Z,91.90
2023-08-30T13:01:01.316Z,91.60
2023-08-30T13:03:29.454Z,91.10
2023-08-30T13:05:56.602Z,91.00
2023-08-30T13:08:24.954Z,91.70
2023-08-30T13:10:52.105Z,92.40
2023-08-30T13:13:19.333Z,92.80
2023-08-30T13:15:46.385Z,93.20
2023-08-30T13:18:13.500Z,93.70
2023-08-30T13:20:43.754Z,93.90
2023-08-30T13:23:11.565Z,94.00
2023-08-30T13:25:42.912Z,93.80
2023-08-30T13:28:12.971Z,93.90
2023-08-30T13:30:46.454Z,94.10
2023-08-30T13:33:14.161Z,93.70
2023-08-30T13:35:44.614Z,93.40
2023-08-30T13:38:11.660Z,93.80
2023-08-30T13:40:51.107Z,93.90
2023-08-30T13:43:21.207Z,94.10
2023-08-30T13:45:57.819Z,93.80
2023-08-30T13:48:24.943Z,94.10
2023-08-30T13:50:56.426Z,93.80
2023-08-30T13:53:25.810Z,93.90
2023-08-30T13:55:55.043Z,93.30
2023-08-30T13:58:23.035Z,93.30
2023-08-30T14:00:53.215Z,93.40
2023-08-30T14:03:24.564Z,93.30
2023-08-30T14:05:51.588Z,93.50
2023-08-30T14:08:21.828Z,93.50
2023-08-30T14:10:49.931Z,93.30
2023-08-30T14:13:18.535Z,92.60
2023-08-30T14:15:51.811Z,92.80
2023-08-30T14:18:18.951Z,93.10
2023-08-30T14:20:46.109Z,93.60
2023-08-30T14:23:14.903Z,93.50
2023-08-30T14:25:45.267Z,93.60
2023-08-30T14:28:14.317Z,93.40
2023-08-30T14:30:43.607Z,93.50
2023-08-30T14:33:12.087Z,93.70
2023-08-30T14:35:45.409Z,93.20
2023-08-30T14:38:12.756Z,93.20
2023-08-30T14:40:43.175Z,92.90
2023-08-30T14:43:12.494Z,92.90
2023-08-30T14:45:39.543Z,93.30
2023-08-30T14:48:09.882Z,93.80
2023-08-30T14:50:37.216Z,93.80
2023-08-30T14:53:04.482Z,93.50
2023-08-30T14:55:34.812Z,93.50
2023-08-30T14:58:05.214Z,93.20
2023-08-30T15:00:34.739Z,94.00
2023-08-30T15:03:05.301Z,95.00
2023-08-30T15:05:32.518Z,95.00
2023-08-30T15:08:00.013Z,95.40
2023-08-30T15:10:27.324Z,95.10
2023-08-30T15:12:57.736Z,95.10
2023-08-30T15:15:28.187Z,95.20
2023-08-30T15:17:58.496Z,94.60
2023-08-30T15:20:25.722Z,94.00
2023-08-30T15:22:56.010Z,94.00
2023-08-30T15:25:25.438Z,94.50
2023-08-30T15:27:55.627Z,94.60
2023-08-30T15:30:26.147Z,94.60
2023-08-30T15:32:53.592Z,94.40
2023-08-30T15:35:21.255Z,94.20
2023-08-30T15:37:48.472Z,93.80
2023-08-30T15:40:16.675Z,93.80
2023-08-30T15:42:44.259Z,93.90
2023-08-30T15:45:14.471Z,94.00
2023-08-30T15:47:47.545Z,94.00
2023-08-30T15:50:14.762Z,93.90
2023-08-30T15:52:44.909Z,94.10
2023-08-30T15:55:15.120Z,94.30
2023-08-30T15:57:43.204Z,94.60
2023-08-30T16:00:11.839Z,94.80
2023-08-30T16:02:39.111Z,95.00
2023-08-30T16:05:06.907Z,95.20
2023-08-30T16:07:37.100Z,95.40
2023-08-30T16:10:07.912Z,95.40
2023-08-30T16:12:38.101Z,95.60
2023-08-30T16:15:08.625Z,95.80
2023-08-30T16:17:38.849Z,96.00
2023-08-30T16:20:06.860Z,96.00
2023-08-30T16:22:37.022Z,96.30
2023-08-30T16:25:06.938Z,96.50
2023-08-30T16:27:34.060Z,96.60
2023-08-30T16:30:04.505Z,96.50
2023-08-30T16:32:32.984Z,96.00
2023-08-30T16:35:00.065Z,95.50
2023-08-30T16:37:27.117Z,95.30
2023-08-30T16:39:54.966Z,95.40
2023-08-30T16:42:28.062Z,95.40
2023-08-30T16:44:56.202Z,95.40
2023-08-30T16:47:23.378Z,95.40
2023-08-30T16:49:53.805Z,95.20
2023-08-30T16:52:20.880Z,95.00
2023-08-30T16:54:51.079Z,94.90
2023-08-30T16:57:21.583Z,95.00
2023-08-30T16:59:48.646Z,94.90
2023-08-30T17:02:23.114Z,94.80
2023-08-30T17:04:56.399Z,94.90
2023-08-30T17:07:23.722Z,95.00
2023-08-30T17:09:52.857Z,95.10
2023-08-30T17:12:22.924Z,95.30
2023-08-30T17:14:50.201Z,95.60
2023-08-30T17:17:18.275Z,96.00
2023-08-30T17:19:47.472Z,96.50
2023-08-30T17:22:14.684Z,96.90
2023-08-30T17:24:44.374Z,97.20
2023-08-30T17:27:11.683Z,97.40
2023-08-30T17:29:41.819Z,97.50
2023-08-30T17:32:10.994Z,97.80
2023-08-30T17:34:38.367Z,98.10
2023-08-30T17:37:09.158Z,98.20
2023-08-30T17:39:39.500Z,98.90
2023-08-30T17:42:09.218Z,99.90
2023-08-30T17:44:38.392Z,99.90
2023-08-30T17:47:05.990Z,99.90
2023-08-30T17:49:33.040Z,99.90
2023-08-30T17:52:04.556Z,99.90
2023-08-30T17:54:36.805Z,99.90
2023-08-30T17:57:07.230Z,99.90
2023-08-30T17:59:36.392Z,99.90
2023-08-30T18:02:14.710Z,99.90
2023-08-30T18:04:43.772Z,99.90
2023-08-30T18:07:10.943Z,99.90
2023-08-30T18:09:44.333Z,99.90
2023-08-30T18:12:12.397Z,99.90
2023-08-30T18:14:39.492Z,99.90
2023-08-30T18:17:09.664Z,99.90
2023-08-30T18:19:41.949Z,99.90
2023-08-30T18:22:10.046Z,99.90
2023-08-30T18:24:40.442Z,99.90
2023-08-30T18:27:11.854Z,99.90
2023-08-30T18:29:43.475Z,99.90
2023-08-30T18:32:13.892Z,99.90
2023-08-30T18:34:41.897Z,99.90
2023-08-30T18:37:09.278Z,99.90
2023-08-30T18:39:37.632Z,99.90
2023-08-30T18:42:10.030Z,99.90
2023-08-30T18:44:38.092Z,99.90
2023-08-30T18:47:08.153Z,99.90
2023-08-30T18:49:35.346Z,99.90
2023-08-30T18:52:03.304Z,99.90
2023-08-30T18:54:30.594Z,99.90
2023-08-30T18:57:00.882Z,99.90
2023-08-30T18:59:31.562Z,99.90
2023-08-30T19:01:59.696Z,99.90
2023-08-30T19:04:30.717Z,99.90
2023-08-30T19:06:57.836Z,99.90
2023-08-30T19:09:24.896Z,99.90
2023-08-30T19:11:52.305Z,99.90
2023-08-30T19:14:22.777Z,99.90
2023-08-30T19:16:52.897Z,99.90
2023-08-30T19:19:22.080Z,99.90
2023-08-30T19:21:53.540Z,99.90
2023-08-30T19:24:20.723Z,99.90
2023-08-30T19:26:48.836Z,99.90
2023-08-30T19:29:18.979Z,99.90
2023-08-30T19:31:47.359Z,99.90
2023-08-30T19:34:15.502Z,99.90
2023-08-30T19:36:45.748Z,99.90
2023-08-30T19:39:14.804Z,99.90
2023-08-30T19:41:42.882Z,99.90
2023-08-30T19:44:09.976Z,99.90
2023-08-30T19:46:40.129Z,99.90
2023-08-30T19:49:08.248Z,99.90
2023-08-30T19:51:36.530Z,99.90
2023-08-30T19:54:04.510Z,99.90
2023-08-30T19:56:34.764Z,99.90
2023-08-30T19:59:04.972Z,99.90
2023-08-30T20:01:34.190Z,99.90
2023-08-30T20:04:03.446Z,99.90
2023-08-30T20:06:33.626Z,99.90
2023-08-30T20:09:04.254Z,99.90
2023-08-30T20:11:32.322Z,99.90
2023-08-30T20:13:59.512Z,99.90
2023-08-30T20:16:26.898Z,99.90
2023-08-30T20:18:54.046Z,99.90
2023-08-30T20:21:22.222Z,99.90
2023-08-30T20:23:52.407Z,99.90
2023-08-30T20:26:23.299Z,99.90
2023-08-30T20:28:53.522Z,99.90
2023-08-30T20:31:22.233Z,99.90
2023-08-30T20:33:53.902Z,99.90
2023-08-30T20:36:34.511Z,99.90
2023-08-30T20:39:07.734Z,99.90
2023-08-30T20:41:34.958Z,99.90
2023-08-30T20:44:04.831Z,99.90
2023-08-30T20:46:33.883Z,99.90
2023-08-30T20:49:04.328Z,99.90
2023-08-30T20:51:31.744Z,99.90
2023-08-30T20:54:04.363Z,99.90
2023-08-30T20:56:33.532Z,99.90
2023-08-30T20:59:06.013Z,99.90
2023-08-30T21:01:34.749Z,99.90
2023-08-30T21:04:02.102Z,99.90
2023-08-30T21:06:29.305Z,99.90
2023-08-30T21:08:57.820Z,99.90
2023-08-30T21:11:25.306Z,99.90
2023-08-30T21:13:52.461Z,99.90
2023-08-30T21:16:19.733Z,99.90
2023-08-30T21:18:46.856Z,99.90
2023-08-30T21:21:13.998Z,99.90
2023-08-30T21:23:41.052Z,99.90
2023-08-30T21:26:08.122Z,99.90
2023-08-30T21:28:35.434Z,99.90
2023-08-30T21:31:02.672Z,99.90
2023-08-30T21:33:29.948Z,99.90
2023-08-30T21:36:00.890Z,99.90
2023-08-30T21:38:31.331Z,99.90
2023-08-30T21:40:58.671Z,99.90
2023-08-30T21:43:28.686Z,99.90
2023-08-30T21:45:55.809Z,99.90
2023-08-30T21:48:24.828Z,99.90
2023-08-30T21:50:56.453Z,99.90
2023-08-30T21:53:26.653Z,99.90
2023-08-30T21:55:56.767Z,99.90
2023-08-30T21:58:27.010Z,99.90
2023-08-30T22:00:59.931Z,99.90
2023-08-30T22:03:32.966Z,99.90
2023-08-30T22:06:04.615Z,99.90
2023-08-30T22:08:35.671Z,99.90
2023-08-30T22:11:09.028Z,99.90
2023-08-30T22:13:36.597Z,99.90
2023-08-30T22:16:07.673Z,99.90
2023-08-30T22:18:37.016Z,99.90
2023-08-30T22:21:05.254Z,99.90
2023-08-30T22:23:32.525Z,99.90
2023-08-30T22:26:02.775Z,99.90
2023-08-30T22:28:30.925Z,99.90
2023-08-30T22:30:59.080Z,99.90
2023-08-30T22:33:31.479Z,99.90
2023-08-30T22:36:00.630Z,99.90
2023-08-30T22:38:30.844Z,99.90
2023-08-30T22:40:59.119Z,99.90
2023-08-30T22:43:28.271Z,99.90
2023-08-30T22:45:55.477Z,99.90
2023-08-30T22:48:22.596Z,99.90
2023-08-30T22:50:49.669Z,99.90
2023-08-30T22:53:16.714Z,99.90
2023-08-30T22:55:44.676Z,99.90
2023-08-30T22:58:12.948Z,99.90
2023-08-30T23:00:41.017Z,99.90
2023-08-30T23:03:10.288Z,99.90
2023-08-30T23:05:43.640Z,99.90
2023-08-30T23:08:13.692Z,99.90
2023-08-30T23:10:44.141Z,99.90
2023-08-30T23:13:11.386Z,99.90
2023-08-30T23:15:41.061Z,99.90
2023-08-30T23:18:35.786Z,99.90
2023-08-30T23:21:03.906Z,99.90
2023-08-30T23:23:32.994Z,99.90
2023-08-30T23:26:05.369Z,99.90
2023-08-30T23:28:35.605Z,99.90
2023-08-30T23:31:07.156Z,99.90
2023-08-30T23:33:34.461Z,99.90
2023-08-30T23:36:03.127Z,99.90
2023-08-30T23:38:30.142Z,99.90
2023-08-30T23:40:57.182Z,99.90
2023-08-30T23:43:24.368Z,99.90
2023-08-30T23:45:54.676Z,99.90
2023-08-30T23:48:23.333Z,99.90
2023-08-30T23:50:50.455Z,99.90
2023-08-30T23:53:18.247Z,99.90
2023-08-30T23:55:49.593Z,99.90
2023-08-30T23:58:17.058Z,99.90
